Pagina principale
METAR-TAF:

METAR-TAF

Aeroporti :

Aeroporto di Pointe Noire

Pointe-Noire, Congo

latitudine: 04-49S, longitudine: 011-54E, altezza: 17 m

Osservazione

Il bollettino è stato emesso 4 ore e 9 minuti fa, alle 20:00 UTC
Vento 6 kt da sud
Temperature 25°C
Umidità 94%
Pressione 1009 hPa
Visibilità: 8000 m
Nubi sparse ad un'altezza di 1000 ft
Nubi sparse ad un'altezza di 2000 ft

METAR: FCPP 192000Z 19006KT 8000 SCT010 SCT020 25/24 Q1009 NOSIG

Ora: 01:09 (00:09 UTC)

Previsione

Il bollettino è stato emesso 1 ora e 9 minuti fa, alle 23:00 UTC
Previsione valida dal 20 alle 00 UTC al 20 alle 24 UTC
Vento 6 kt da sud
Visibilità: 8000 m
Nubi sparse ad un'altezza di 1000 ft
Nuvoloso ad un'altezza di 2300 ft
Probabilità 30%
dal 20 alle 04 UTC al 20 alle 08 UTC
Visibilità: 3000 m
Nuvoloso ad un'altezza di 800 ft
Nuvoloso ad un'altezza di 2600 ft
pioviggine

TAF: FCPP 192300Z 2000/2024 18006KT 8000 SCT010 BKN023 PROB30 2004/2008 3000 DZ BKN008 BKN026

Osservazioni e previsioni meteorologiche di più di 4000 aeroporti (messaggi METAR e TAF).

Le stazioni disponibili sono rappresentate dai dischi gialli e rossi sulla carta.

Puntare il mouse per vedere il nome della stazione.

Clicca sopra per visualizzare le osservazioni e previsioni meteorologiche.

Per cambiare la mappa : fare clic sui pulsanti verdi con una croce nera per ingrandire, il pulsante verde con un trattino per diminuire, o sulla freccia verde per le mappe adiacenti.


METAR-TAF: